RAK weather

Menara Airport
Marrakech, Marrakech Province, Morocco

Public forecast

Using degrees Celsius for public forecast. Weather courtesy of forecast.io.

Current aviation weather report (METAR) for Menara Airport

Retrieved 2019/11/23 00:30 UTC (0 seconds ago):

GMMX 230030Z 22007KT 9999 SCT020 16/12 Q1016 NOSIG

Aviation forecast (TAF) for Menara Airport

Retrieved 2019-11-23 00:18 UTC (5 minutes ago):

TAF GMMX 222300Z 2300/2406 22006KT 8000 SCT020 SCT080 TEMPO 2308/2318 34016KT 5000 RA SCT013 BKN020